createdAt,value
2017-10-16T00:00:11.825Z,933.71
2017-10-16T00:00:25.324Z,933.68
2017-10-16T00:00:38.216Z,933.71
2017-10-16T00:00:51.685Z,933.77
2017-10-16T00:01:05.139Z,933.71
2017-10-16T00:01:18.057Z,933.73
2017-10-16T00:01:31.495Z,933.93
2017-10-16T00:01:44.476Z,933.79
2017-10-16T00:01:57.416Z,933.67
2017-10-16T00:02:11.474Z,933.73
2017-10-16T00:02:24.935Z,933.68
2017-10-16T00:02:37.798Z,933.69
2017-10-16T00:02:51.331Z,933.73
2017-10-16T00:03:04.207Z,933.68
2017-10-16T00:03:17.172Z,933.72
2017-10-16T00:03:29.601Z,933.7
2017-10-16T00:03:43.118Z,933.74
2017-10-16T00:03:56.025Z,933.7
2017-10-16T00:04:09.497Z,933.72
2017-10-16T00:04:22.470Z,933.73
2017-10-16T00:04:35.986Z,933.71
2017-10-16T00:04:48.976Z,933.78
2017-10-16T00:05:01.874Z,933.77
2017-10-16T00:05:15.291Z,933.74
2017-10-16T00:05:28.685Z,933.7
2017-10-16T00:05:41.618Z,933.73
2017-10-16T00:05:55.124Z,933.75
2017-10-16T00:06:07.481Z,933.74
2017-10-16T00:06:20.995Z,933.75
2017-10-16T00:06:34.411Z,933.79
2017-10-16T00:06:48.023Z,933.75
2017-10-16T00:07:00.963Z,933.74
2017-10-16T00:07:14.413Z,933.7
2017-10-16T00:07:28.199Z,933.85
2017-10-16T00:07:41.599Z,933.68
2017-10-16T00:07:55.345Z,933.68
2017-10-16T00:08:08.336Z,933.72
2017-10-16T00:08:21.285Z,933.76
2017-10-16T00:08:34.762Z,933.78
2017-10-16T00:08:49.044Z,933.74
2017-10-16T00:09:01.984Z,933.82
2017-10-16T00:09:16.739Z,933.78
2017-10-16T00:09:30.294Z,933.75
2017-10-16T00:09:43.219Z,933.78
2017-10-16T00:09:57.562Z,933.75
2017-10-16T00:10:11.050Z,933.75
2017-10-16T00:10:23.482Z,933.79
2017-10-16T00:10:36.961Z,933.8
2017-10-16T00:10:50.672Z,933.77
2017-10-16T00:11:04.138Z,933.83
2017-10-16T00:11:17.803Z,933.82
2017-10-16T00:11:30.768Z,933.83
2017-10-16T00:11:43.951Z,933.82
2017-10-16T00:11:58.638Z,933.75
2017-10-16T00:12:13.608Z,933.73
2017-10-16T00:12:27.100Z,933.82
2017-10-16T00:12:40.598Z,933.87
2017-10-16T00:12:54.844Z,933.82
2017-10-16T00:13:08.274Z,933.69
2017-10-16T00:13:21.724Z,933.78
2017-10-16T00:13:35.144Z,933.83
2017-10-16T00:13:48.602Z,933.75
2017-10-16T00:14:01.513Z,933.86
2017-10-16T00:14:14.468Z,933.74
2017-10-16T00:14:29.803Z,933.93
2017-10-16T00:14:43.346Z,933.83
2017-10-16T00:14:58.306Z,933.77
2017-10-16T00:15:15.806Z,933.82
2017-10-16T00:15:29.256Z,933.81
2017-10-16T00:15:42.173Z,933.87
2017-10-16T00:16:00.923Z,933.71
2017-10-16T00:16:16.022Z,933.77
2017-10-16T00:16:32.504Z,933.76
2017-10-16T00:16:45.442Z,933.8
2017-10-16T00:16:58.677Z,933.84
2017-10-16T00:17:12.815Z,933.75
2017-10-16T00:17:25.429Z,933.8
2017-10-16T00:17:39.689Z,933.73
2017-10-16T00:17:52.584Z,933.78
2017-10-16T00:18:05.488Z,933.82
2017-10-16T00:18:18.076Z,933.84
2017-10-16T00:18:31.572Z,933.79
2017-10-16T00:18:45.078Z,933.82
2017-10-16T00:18:58.537Z,933.85
2017-10-16T00:19:19.302Z,933.88
2017-10-16T00:19:32.222Z,933.76
2017-10-16T00:20:01.281Z,933.73
2017-10-16T00:20:21.037Z,933.69
2017-10-16T00:20:41.087Z,933.75
2017-10-16T00:20:54.244Z,933.75
2017-10-16T00:21:07.713Z,933.7
2017-10-16T00:21:34.834Z,933.75
2017-10-16T00:21:48.022Z,933.76
2017-10-16T00:22:11.218Z,933.73
2017-10-16T00:22:24.248Z,933.69
2017-10-16T00:22:37.225Z,933.76
2017-10-16T00:22:50.920Z,933.79
2017-10-16T00:23:04.420Z,933.79
2017-10-16T00:23:17.905Z,933.75
2017-10-16T00:23:43.292Z,933.92
2017-10-16T00:23:59.511Z,933.83
2017-10-16T00:24:12.410Z,933.87
2017-10-16T00:24:25.887Z,933.78
2017-10-16T00:24:39.321Z,933.79
2017-10-16T00:24:52.736Z,933.88
2017-10-16T00:25:05.715Z,933.83
2017-10-16T00:25:19.179Z,933.81
2017-10-16T00:25:32.752Z,933.93
2017-10-16T00:25:46.251Z,933.79
2017-10-16T00:25:59.193Z,933.78
2017-10-16T00:26:12.883Z,933.8
2017-10-16T00:26:26.337Z,933.82
2017-10-16T00:26:40.009Z,933.81
2017-10-16T00:26:53.502Z,933.9
2017-10-16T00:27:06.968Z,933.84
2017-10-16T00:27:20.496Z,933.85
2017-10-16T00:27:33.449Z,933.87
2017-10-16T00:27:46.888Z,933.81
2017-10-16T00:28:00.323Z,933.81
2017-10-16T00:28:13.770Z,933.83
2017-10-16T00:28:27.306Z,933.84
2017-10-16T00:28:41.021Z,933.77
2017-10-16T00:28:54.766Z,933.83
2017-10-16T00:29:07.739Z,933.78
2017-10-16T00:29:21.173Z,933.75
2017-10-16T00:29:36.270Z,933.78
2017-10-16T00:29:50.968Z,933.78
2017-10-16T00:31:01.614Z,933.83
2017-10-16T00:31:14.017Z,933.86
2017-10-16T00:31:32.501Z,933.82
2017-10-16T00:31:59.073Z,933.75
2017-10-16T00:32:12.768Z,933.71
2017-10-16T00:32:31.296Z,933.76
2017-10-16T00:33:06.849Z,933.78
2017-10-16T00:33:52.162Z,933.72
2017-10-16T00:34:05.640Z,933.74
2017-10-16T00:34:18.532Z,933.79
2017-10-16T00:34:32.018Z,933.78
2017-10-16T00:34:45.430Z,933.78
2017-10-16T00:34:57.829Z,933.76
2017-10-16T00:35:11.335Z,933.74
2017-10-16T00:35:24.310Z,933.82
2017-10-16T00:35:37.241Z,933.75
2017-10-16T00:35:50.683Z,933.73
2017-10-16T00:36:03.576Z,933.75
2017-10-16T00:36:16.554Z,933.75
2017-10-16T00:37:48.472Z,933.69
2017-10-16T00:38:17.349Z,933.7
2017-10-16T00:38:38.825Z,933.72
2017-10-16T00:38:51.183Z,933.76
2017-10-16T00:39:03.616Z,933.68
2017-10-16T00:39:19.618Z,933.73
2017-10-16T00:39:39.415Z,933.7
2017-10-16T00:39:53.393Z,933.76
2017-10-16T00:40:24.936Z,933.68
2017-10-16T00:41:35.478Z,933.73
2017-10-16T00:41:49.429Z,933.67
2017-10-16T00:42:08.380Z,933.67
2017-10-16T00:42:52.432Z,933.68
2017-10-16T00:43:36.710Z,933.67
2017-10-16T00:45:35.628Z,933.78
2017-10-16T00:46:24.472Z,933.72
2017-10-16T00:47:08.566Z,933.64
2017-10-16T00:47:21.499Z,933.66
2017-10-16T00:47:52.145Z,933.73
2017-10-16T00:48:31.961Z,933.74
2017-10-16T00:48:50.665Z,933.73
2017-10-16T00:49:04.120Z,933.73
2017-10-16T00:49:36.024Z,933.71
2017-10-16T00:49:50.247Z,933.66
2017-10-16T00:50:10.045Z,933.68
2017-10-16T00:50:22.962Z,933.71
2017-10-16T00:50:36.489Z,933.67
2017-10-16T00:52:07.433Z,933.67
2017-10-16T00:52:30.077Z,933.76
2017-10-16T00:53:06.690Z,933.62
2017-10-16T00:54:01.506Z,933.66
2017-10-16T00:54:14.984Z,933.73
2017-10-16T00:54:28.912Z,933.72
2017-10-16T00:54:48.743Z,933.61
2017-10-16T00:55:07.906Z,933.61
2017-10-16T00:55:24.380Z,933.65
2017-10-16T00:55:37.359Z,933.73
2017-10-16T00:55:57.699Z,933.73
2017-10-16T00:56:42.493Z,933.65
2017-10-16T00:57:08.769Z,933.7
2017-10-16T00:58:20.064Z,933.66
2017-10-16T00:58:33.799Z,933.68
2017-10-16T00:58:52.172Z,933.6
2017-10-16T00:59:05.063Z,933.62
2017-10-16T00:59:18.553Z,933.63
2017-10-16T00:59:32.074Z,933.64
2017-10-16T00:59:45.114Z,933.62
2017-10-16T01:00:54.341Z,933.61
2017-10-16T10:06:51.530Z,933.82
2017-10-16T10:07:05.036Z,933.84
2017-10-16T10:07:18.484Z,933.8
2017-10-16T10:07:31.965Z,933.81
2017-10-16T10:07:45.373Z,933.85
2017-10-16T10:07:57.743Z,933.78
2017-10-16T10:08:10.708Z,933.84
2017-10-16T10:08:24.179Z,933.83
2017-10-16T10:08:37.033Z,933.87
2017-10-16T10:08:49.391Z,933.81
2017-10-16T10:09:02.298Z,933.85
2017-10-16T10:09:15.763Z,933.91
2017-10-16T10:09:29.208Z,933.8
2017-10-16T10:09:42.625Z,933.78
2017-10-16T10:09:55.534Z,933.84
2017-10-16T10:10:08.518Z,933.84
2017-10-16T10:10:22.007Z,933.85
2017-10-16T10:10:35.483Z,933.83
2017-10-16T10:10:48.920Z,933.89
2017-10-16T10:11:01.778Z,933.87
2017-10-16T10:11:15.267Z,933.86
2017-10-16T10:11:28.704Z,933.88
2017-10-16T10:11:42.144Z,933.85
2017-10-16T10:11:54.997Z,933.86
2017-10-16T10:12:06.826Z,933.82
2017-10-16T10:12:19.223Z,933.94
2017-10-16T10:12:32.141Z,933.93
2017-10-16T10:12:45.566Z,934
2017-10-16T10:12:58.999Z,933.87
2017-10-16T10:13:11.915Z,933.82
2017-10-16T10:13:25.375Z,933.8
2017-10-16T10:13:38.300Z,933.82
2017-10-16T10:13:51.220Z,933.85
2017-10-16T10:14:04.627Z,933.88
2017-10-16T10:14:17.006Z,933.91
2017-10-16T10:14:30.510Z,933.96
2017-10-16T10:14:43.370Z,933.9
2017-10-16T10:14:56.814Z,934
2017-10-16T10:15:10.304Z,933.96
2017-10-16T10:15:23.749Z,934.03
2017-10-16T10:15:37.219Z,933.98
2017-10-16T10:15:50.673Z,933.96
2017-10-16T10:16:04.102Z,934.07
2017-10-16T10:16:17.010Z,934.02
2017-10-16T10:16:30.455Z,933.84
2017-10-16T10:16:43.366Z,933.83
2017-10-16T10:16:56.786Z,933.94
2017-10-16T10:17:10.246Z,933.91
2017-10-16T10:17:23.656Z,933.9
2017-10-16T10:17:36.583Z,933.92
2017-10-16T10:17:49.997Z,933.93
2017-10-16T10:18:02.376Z,933.98
2017-10-16T10:18:15.289Z,933.91
2017-10-16T10:18:28.726Z,933.93
2017-10-16T10:18:42.154Z,933.93
2017-10-16T10:18:55.049Z,933.93
2017-10-16T10:19:07.446Z,933.92
2017-10-16T10:19:19.839Z,933.93
2017-10-16T10:19:32.707Z,934.03
2017-10-16T10:19:46.130Z,934.32
2017-10-16T10:19:59.033Z,934.6
2017-10-16T10:20:12.508Z,934.72
2017-10-16T10:20:25.943Z,933.99
2017-10-16T10:20:38.907Z,933.91
2017-10-16T10:20:52.487Z,933.9
2017-10-16T10:21:05.390Z,934.26
2017-10-16T10:21:17.770Z,934.33
2017-10-16T10:21:30.634Z,934.64
2017-10-16T10:21:44.090Z,934.44
2017-10-16T10:21:57.554Z,934.58
2017-10-16T10:22:09.954Z,934.17
2017-10-16T10:22:22.875Z,933.96
2017-10-16T10:22:36.278Z,933.91
2017-10-16T10:22:49.726Z,933.95
2017-10-16T10:23:03.183Z,933.92
2017-10-16T10:23:16.661Z,933.99
2017-10-16T10:23:30.120Z,933.94
2017-10-16T10:23:43.579Z,934
2017-10-16T10:23:57.077Z,933.94
2017-10-16T10:24:10.487Z,933.96
2017-10-16T10:24:23.458Z,933.93
2017-10-16T10:24:36.982Z,933.92
2017-10-16T10:24:50.429Z,933.96
2017-10-16T10:25:03.327Z,934
2017-10-16T10:25:16.288Z,934.02
2017-10-16T10:25:28.672Z,934.01
2017-10-16T10:25:42.159Z,934
2017-10-16T10:25:55.053Z,933.9
2017-10-16T10:26:08.465Z,934.08
2017-10-16T10:26:21.357Z,934
2017-10-16T10:26:34.311Z,934.02
2017-10-16T10:26:47.211Z,934.02
2017-10-16T10:27:00.072Z,934
2017-10-16T10:27:13.016Z,934.04
2017-10-16T10:27:26.478Z,934.02
2017-10-16T10:27:38.252Z,934.01
2017-10-16T10:27:51.193Z,934.01
2017-10-16T10:28:04.088Z,933.98
2017-10-16T10:28:16.986Z,933.98
2017-10-16T10:28:29.924Z,934.05
2017-10-16T10:28:42.299Z,934.02
2017-10-16T10:28:55.784Z,934.08
2017-10-16T10:29:08.668Z,934.05
2017-10-16T10:29:22.065Z,934.01
2017-10-16T10:29:35.443Z,934.07
2017-10-16T10:29:48.350Z,934.01
2017-10-16T10:30:01.281Z,934.06
2017-10-16T10:30:14.182Z,934.01
2017-10-16T10:30:27.070Z,934.1
2017-10-16T10:30:39.989Z,934.27
2017-10-16T10:30:53.464Z,934.19
2017-10-16T10:31:06.454Z,934.21
2017-10-16T10:31:19.871Z,934.24
2017-10-16T10:31:33.295Z,934.21
2017-10-16T10:31:46.755Z,934.1
2017-10-16T10:32:00.216Z,934.15
2017-10-16T10:32:13.133Z,934.1
2017-10-16T10:32:25.525Z,934.16
2017-10-16T10:32:38.999Z,934.24
2017-10-16T10:32:52.416Z,934.12
2017-10-16T10:33:05.334Z,934.14
2017-10-16T10:33:18.383Z,934.07
2017-10-16T10:33:31.313Z,934.03
2017-10-16T10:33:44.787Z,934.09
2017-10-16T10:33:57.709Z,934.08
2017-10-16T10:34:10.612Z,934.08
2017-10-16T10:34:23.570Z,934.06
2017-10-16T10:34:36.511Z,934.06
2017-10-16T10:34:49.996Z,934.07
2017-10-16T10:35:03.470Z,934.07
2017-10-16T10:35:16.357Z,934.03
2017-10-16T10:35:29.219Z,934.08
2017-10-16T10:35:42.614Z,934.07
2017-10-16T10:35:57.585Z,934.15
2017-10-16T10:36:10.526Z,934.13
2017-10-16T10:36:22.847Z,934.02
2017-10-16T10:36:35.780Z,934.02
2017-10-16T10:36:48.736Z,934.03
2017-10-16T10:37:01.679Z,934.09
2017-10-16T10:37:15.049Z,934.12
2017-10-16T10:37:27.962Z,934.11
2017-10-16T10:37:41.399Z,934.15
2017-10-16T10:37:54.814Z,934.05
2017-10-16T10:38:07.191Z,934.13
2017-10-16T10:38:20.071Z,934.08
2017-10-16T10:38:32.480Z,934.1
2017-10-16T10:38:45.382Z,934.11
2017-10-16T10:38:58.826Z,934.08
2017-10-16T10:39:12.283Z,934.08
2017-10-16T10:39:27.068Z,934.13
2017-10-16T10:39:40.547Z,934.22
2017-10-16T10:39:53.988Z,934.25
2017-10-16T10:40:06.316Z,934.35
2017-10-16T10:40:18.680Z,934.42
2017-10-16T10:40:32.122Z,934.44
2017-10-16T10:40:45.102Z,934.35
2017-10-16T10:40:58.013Z,934.26
2017-10-16T10:41:11.462Z,934.26
2017-10-16T10:41:24.366Z,934.18
2017-10-16T10:41:37.830Z,934.17
2017-10-16T10:41:51.289Z,934.21
2017-10-16T10:42:04.231Z,934.21
2017-10-16T10:42:17.718Z,934.19
2017-10-16T10:42:31.148Z,934.22
2017-10-16T10:42:43.999Z,934.28
2017-10-16T10:42:56.876Z,934.16
2017-10-16T10:43:09.759Z,934.22
2017-10-16T10:43:22.709Z,934.24
2017-10-16T10:43:36.085Z,934.31
2017-10-16T10:43:48.488Z,934.24
2017-10-16T10:44:01.941Z,934.19
2017-10-16T10:44:15.391Z,934.17
2017-10-16T10:44:28.277Z,934.15
2017-10-16T10:44:40.651Z,934.13
2017-10-16T10:44:54.133Z,934.17
2017-10-16T10:45:07.002Z,934.25
2017-10-16T10:45:19.915Z,934.27
2017-10-16T10:45:33.357Z,934.25
2017-10-16T10:45:46.842Z,934.2
2017-10-16T10:45:59.737Z,934.24
2017-10-16T10:46:12.636Z,934.17
2017-10-16T10:46:26.147Z,934.22
2017-10-16T10:46:39.613Z,934.15
2017-10-16T10:46:52.533Z,934.2
2017-10-16T10:47:05.950Z,934.18
2017-10-16T10:47:19.367Z,934.17
2017-10-16T10:47:32.802Z,934.21
2017-10-16T10:47:45.715Z,934.16
2017-10-16T10:47:59.168Z,934.2
2017-10-16T10:48:12.050Z,934.17
2017-10-16T10:48:25.468Z,934.27
2017-10-16T10:48:38.340Z,934.46
2017-10-16T10:48:51.761Z,934.44
2017-10-16T10:49:04.650Z,934.4
2017-10-16T10:49:18.118Z,934.28
2017-10-16T10:49:31.599Z,934.23
2017-10-16T10:49:45.027Z,934.34
2017-10-16T10:49:57.957Z,934.3
2017-10-16T10:50:10.883Z,934.16
2017-10-16T10:50:24.344Z,934.17
2017-10-16T10:50:37.760Z,934.15
2017-10-16T10:50:50.636Z,934.13
2017-10-16T10:51:03.621Z,934.19
2017-10-16T10:51:15.974Z,934.19
2017-10-16T10:51:28.880Z,934.19
2017-10-16T10:51:42.373Z,934.32
2017-10-16T10:51:55.270Z,934.38
2017-10-16T10:52:08.682Z,934.3
2017-10-16T10:52:21.579Z,934.24
2017-10-16T10:52:35.056Z,934.2
2017-10-16T10:52:48.460Z,934.3
2017-10-16T10:53:01.342Z,934.35
2017-10-16T10:53:14.750Z,934.49
2017-10-16T10:53:27.069Z,934.32
2017-10-16T10:53:39.410Z,934.31
2017-10-16T10:53:52.308Z,934.52
2017-10-16T10:54:04.679Z,934.56
2017-10-16T10:54:18.211Z,934.61
2017-10-16T10:54:31.144Z,934.46
2017-10-16T10:54:44.586Z,934.23
2017-10-16T10:54:56.951Z,934.12
2017-10-16T10:55:10.380Z,934.41
2017-10-16T10:55:23.807Z,934.67
2017-10-16T10:55:37.282Z,934.76
2017-10-16T10:55:50.186Z,934.69
2017-10-16T10:56:03.192Z,934.4
2017-10-16T10:56:16.048Z,934.33
2017-10-16T10:56:28.999Z,934.68
2017-10-16T10:56:42.491Z,934.8
2017-10-16T10:56:55.892Z,934.78
2017-10-16T10:57:09.293Z,934.79
2017-10-16T10:57:22.733Z,934.74
2017-10-16T10:57:36.212Z,934.8
2017-10-16T10:57:49.131Z,934.49
2017-10-16T10:58:02.024Z,934.33
2017-10-16T10:58:15.418Z,934.2
2017-10-16T10:58:28.319Z,934.18
2017-10-16T10:58:41.802Z,934.23
2017-10-16T10:58:55.260Z,934.22
2017-10-16T10:59:08.694Z,934.18
2017-10-16T10:59:22.081Z,934.18
2017-10-16T10:59:35.520Z,934.23
2017-10-16T10:59:48.321Z,934.35
2017-10-16T11:00:00.663Z,934.25
2017-10-16T11:00:14.127Z,934.74
2017-10-16T11:00:25.960Z,934.5
2017-10-16T11:00:39.430Z,934.69
2017-10-16T11:00:52.871Z,934.49
2017-10-16T11:01:05.785Z,934.34
2017-10-16T11:01:19.231Z,934.47
2017-10-16T11:01:32.686Z,934.72
2017-10-16T11:01:46.108Z,934.62
2017-10-16T11:01:58.479Z,934.54
2017-10-16T11:02:11.971Z,934.77
2017-10-16T11:02:25.419Z,934.64
2017-10-16T11:02:37.756Z,934.76
2017-10-16T11:02:50.723Z,934.6
2017-10-16T11:03:03.614Z,934.5
2017-10-16T11:03:17.109Z,934.29
2017-10-16T11:03:29.952Z,934.32
2017-10-16T11:03:43.401Z,934.43
2017-10-16T11:03:56.849Z,934.66
2017-10-16T11:04:10.278Z,934.48
2017-10-16T11:04:23.743Z,934.69
2017-10-16T11:04:37.180Z,934.67
2017-10-16T11:04:50.571Z,934.68
2017-10-16T11:05:02.979Z,934.75
2017-10-16T11:05:15.935Z,934.61
2017-10-16T11:05:28.286Z,934.78
2017-10-16T11:05:41.210Z,934.29
2017-10-16T11:05:54.663Z,934.22
2017-10-16T11:06:08.229Z,934.3
2017-10-16T11:06:21.650Z,934.73
2017-10-16T11:06:34.553Z,934.41
2017-10-16T11:06:47.506Z,934.2
2017-10-16T11:07:00.436Z,934.42
2017-10-16T11:07:12.805Z,934.36
2017-10-16T11:07:25.658Z,934.69
2017-10-16T11:07:38.758Z,934.73
2017-10-16T11:07:51.608Z,934.64
2017-10-16T11:08:04.444Z,934.63
2017-10-16T11:08:17.882Z,934.32
2017-10-16T11:08:31.354Z,934.38
2017-10-16T11:08:44.808Z,934.46
2017-10-16T11:08:56.632Z,934.75
2017-10-16T11:09:10.094Z,934.58
2017-10-16T11:09:23.604Z,934.58
2017-10-16T11:09:37.060Z,934.23
2017-10-16T11:09:49.945Z,934.33
2017-10-16T11:10:02.871Z,934.29
2017-10-16T11:10:16.372Z,934.54
2017-10-16T11:10:28.779Z,934.62
2017-10-16T11:10:42.266Z,934.67
2017-10-16T11:10:55.695Z,934.61
2017-10-16T11:11:09.142Z,934.59
2017-10-16T11:11:21.481Z,934.57
2017-10-16T11:11:34.968Z,934.58
2017-10-16T11:11:48.313Z,934.59
2017-10-16T11:12:01.751Z,934.58
2017-10-16T11:12:15.208Z,934.67
2017-10-16T11:12:28.103Z,934.6
2017-10-16T11:12:40.395Z,934.49
2017-10-16T11:12:53.835Z,934.59
2017-10-16T11:13:06.783Z,934.54
2017-10-16T11:13:20.228Z,934.59
2017-10-16T11:13:33.693Z,934.34
2017-10-16T11:13:47.169Z,934.34
2017-10-16T11:13:59.584Z,934.53
2017-10-16T11:14:12.559Z,934.62
2017-10-16T11:14:26.014Z,934.64
2017-10-16T11:14:38.349Z,934.64
2017-10-16T11:14:51.255Z,934.61
2017-10-16T11:15:03.619Z,934.64
2017-10-16T11:15:16.478Z,934.57
2017-10-16T11:15:30.215Z,934.31
2017-10-16T11:15:43.180Z,934.25
2017-10-16T11:15:56.674Z,934.47
2017-10-16T11:16:09.632Z,934.6
2017-10-16T11:16:23.058Z,934.6
2017-10-16T11:16:35.920Z,934.69
2017-10-16T11:16:49.351Z,934.29
2017-10-16T11:17:02.762Z,934.22
2017-10-16T11:17:16.230Z,934.27
2017-10-16T11:17:29.623Z,934.29
2017-10-16T11:17:43.146Z,934.51
2017-10-16T11:17:55.493Z,934.55
2017-10-16T11:18:08.403Z,934.56
2017-10-16T11:18:21.356Z,934.61
2017-10-16T11:18:34.809Z,934.42
2017-10-16T11:18:48.236Z,934.57
2017-10-16T11:19:00.581Z,934.59
2017-10-16T11:19:13.585Z,934.41
2017-10-16T11:19:26.468Z,934.41
2017-10-16T11:19:38.823Z,934.53
2017-10-16T11:19:52.239Z,934.37
2017-10-16T11:20:05.135Z,934.28
2017-10-16T11:20:18.554Z,934.32
2017-10-16T11:20:31.500Z,934.33
2017-10-16T11:20:45.017Z,934.26
2017-10-16T11:20:57.932Z,934.34
2017-10-16T11:21:10.940Z,934.29
2017-10-16T11:21:23.827Z,934.29
2017-10-16T11:21:36.169Z,934.36
2017-10-16T11:21:49.669Z,934.44
2017-10-16T11:22:02.598Z,934.41
2017-10-16T11:22:15.520Z,934.38
2017-10-16T11:22:28.961Z,934.37
2017-10-16T11:22:42.413Z,934.39
2017-10-16T11:22:54.211Z,934.55
2017-10-16T11:23:07.117Z,934.69
2017-10-16T11:23:20.560Z,934.32
2017-10-16T11:23:33.977Z,934.35
2017-10-16T11:23:47.390Z,934.35
2017-10-16T11:24:00.335Z,934.33
2017-10-16T11:24:13.267Z,934.33
2017-10-16T11:24:26.208Z,934.28
2017-10-16T11:24:39.058Z,934.26
2017-10-16T11:24:51.952Z,934.32
2017-10-16T11:25:04.906Z,934.37
2017-10-16T11:25:18.354Z,934.37
2017-10-16T11:25:31.246Z,934.34
2017-10-16T11:25:43.084Z,934.37
2017-10-16T11:25:56.041Z,934.45
2017-10-16T11:26:08.927Z,934.38
2017-10-16T11:26:21.875Z,934.5
2017-10-16T11:26:35.305Z,934.51
2017-10-16T11:26:48.216Z,934.34
2017-10-16T11:27:01.148Z,934.4
2017-10-16T11:27:14.615Z,934.6
2017-10-16T11:27:26.392Z,934.62
2017-10-16T11:27:39.357Z,934.46
2017-10-16T11:27:52.297Z,934.46
2017-10-16T11:28:05.736Z,934.61
2017-10-16T11:28:19.200Z,934.59
2017-10-16T11:28:32.106Z,934.63
2017-10-16T11:28:45.039Z,934.6
2017-10-16T11:28:57.409Z,934.49
2017-10-16T11:29:10.854Z,934.33
2017-10-16T11:29:24.274Z,934.3
2017-10-16T11:29:37.204Z,934.32
2017-10-16T11:29:50.125Z,934.28
2017-10-16T11:30:03.050Z,934.62
2017-10-16T11:30:14.886Z,934.4
2017-10-16T11:30:27.811Z,934.43
2017-10-16T11:30:41.232Z,934.48
2017-10-16T11:30:54.087Z,934.45
2017-10-16T11:31:06.938Z,934.45
2017-10-16T11:31:19.835Z,934.42
2017-10-16T11:31:32.736Z,934.58
2017-10-16T11:31:45.686Z,934.4
2017-10-16T11:31:58.619Z,934.41
2017-10-16T11:32:11.519Z,934.46
2017-10-16T11:32:23.859Z,934.5
2017-10-16T11:32:37.326Z,934.5
2017-10-16T11:32:50.776Z,934.72
2017-10-16T11:33:03.703Z,934.67
2017-10-16T11:33:16.079Z,934.51
2017-10-16T11:33:28.986Z,934.63
2017-10-16T11:33:41.858Z,934.64
2017-10-16T11:33:55.307Z,934.52
2017-10-16T11:34:08.223Z,934.73
2017-10-16T11:34:21.680Z,934.62
2017-10-16T11:34:35.175Z,934.7
2017-10-16T11:34:48.571Z,934.66
2017-10-16T11:35:01.440Z,934.42
2017-10-16T11:35:14.816Z,934.4
2017-10-16T11:35:28.278Z,934.42
2017-10-16T11:35:41.713Z,934.45
2017-10-16T11:35:54.158Z,934.41
2017-10-16T11:36:07.751Z,934.58
2017-10-16T11:36:20.655Z,934.61
2017-10-16T11:36:34.101Z,934.71
2017-10-16T11:36:47.551Z,934.66
2017-10-16T11:36:59.906Z,934.63
2017-10-16T11:37:13.415Z,934.63
2017-10-16T11:37:26.303Z,934.65
2017-10-16T11:37:39.736Z,934.61
2017-10-16T11:37:53.200Z,934.65
2017-10-16T11:38:06.657Z,934.61
2017-10-16T11:38:19.569Z,934.48
2017-10-16T11:38:33.027Z,934.46
2017-10-16T11:38:45.381Z,934.45
2017-10-16T11:38:58.298Z,934.41
2017-10-16T11:39:11.223Z,934.45
2017-10-16T11:39:24.730Z,934.54
2017-10-16T11:39:38.148Z,934.55
2017-10-16T11:39:51.593Z,934.64
2017-10-16T11:40:05.041Z,934.55
2017-10-16T11:40:18.456Z,934.66
2017-10-16T11:40:31.891Z,934.83
2017-10-16T11:40:45.360Z,934.67
2017-10-16T11:40:58.226Z,934.47
2017-10-16T11:41:10.570Z,934.58
2017-10-16T11:41:22.975Z,934.55
2017-10-16T11:41:35.873Z,934.67
2017-10-16T11:41:49.335Z,934.63
2017-10-16T11:42:02.774Z,934.57
2017-10-16T11:42:16.259Z,934.64
2017-10-16T11:42:28.626Z,934.52
2017-10-16T11:42:41.588Z,934.61
2017-10-16T11:42:54.530Z,934.39
2017-10-16T11:43:08.018Z,934.58
2017-10-16T11:43:19.348Z,934.62
2017-10-16T11:43:32.291Z,934.63
2017-10-16T11:43:45.794Z,934.68
2017-10-16T11:43:59.163Z,934.66
2017-10-16T11:44:12.065Z,934.58
2017-10-16T11:44:25.549Z,934.63
2017-10-16T11:44:38.472Z,934.58
2017-10-16T11:44:51.959Z,934.61
2017-10-16T11:45:04.898Z,934.62
2017-10-16T11:45:17.964Z,934.6
2017-10-16T11:45:31.347Z,934.6
2017-10-16T11:45:43.729Z,934.64
2017-10-16T11:45:57.199Z,934.68
2017-10-16T11:46:10.665Z,934.66
2017-10-16T11:46:23.518Z,934.66
2017-10-16T11:46:36.950Z,934.65
2017-10-16T11:46:50.329Z,934.67
2017-10-16T11:47:03.277Z,934.72
2017-10-16T11:47:15.616Z,934.73
2017-10-16T11:47:28.494Z,934.49
2017-10-16T11:47:41.940Z,934.5
2017-10-16T11:47:55.391Z,934.67
2017-10-16T11:48:07.783Z,934.7
2017-10-16T11:48:21.290Z,934.62
2017-10-16T11:48:34.241Z,934.82
2017-10-16T11:48:47.686Z,934.66
2017-10-16T11:49:01.134Z,934.79
2017-10-16T11:49:13.529Z,934.71
2017-10-16T11:49:27.016Z,934.7
2017-10-16T11:49:40.490Z,934.68
2017-10-16T11:49:53.404Z,934.61
2017-10-16T11:50:05.786Z,934.61
2017-10-16T11:50:19.228Z,934.63
2017-10-16T11:50:32.105Z,934.6
2017-10-16T11:50:44.453Z,934.57
2017-10-16T11:50:56.847Z,934.61
2017-10-16T11:51:09.789Z,934.55
2017-10-16T11:51:22.793Z,934.64
2017-10-16T11:51:36.234Z,934.64
2017-10-16T11:51:49.714Z,934.71
2017-10-16T11:52:02.586Z,934.64
2017-10-16T11:52:16.026Z,934.62
2017-10-16T11:52:29.465Z,934.73
2017-10-16T11:52:42.335Z,934.76
2017-10-16T11:52:55.774Z,934.75
2017-10-16T11:53:08.710Z,934.89
2017-10-16T11:53:22.213Z,934.76
2017-10-16T11:53:35.109Z,934.77
2017-10-16T11:53:48.545Z,934.88
2017-10-16T11:54:01.950Z,934.8
2017-10-16T11:54:15.387Z,934.82
2017-10-16T11:54:28.242Z,934.8
2017-10-16T11:54:41.721Z,934.74
2017-10-16T11:54:53.535Z,934.82
2017-10-16T11:55:06.472Z,934.71
2017-10-16T11:55:18.300Z,934.73
2017-10-16T11:55:31.212Z,934.67
2017-10-16T11:55:44.652Z,934.75
2017-10-16T11:55:58.104Z,934.76
2017-10-16T11:56:10.981Z,934.72
2017-10-16T11:56:24.366Z,934.74
2017-10-16T11:56:37.285Z,934.74
2017-10-16T11:56:50.791Z,934.73
2017-10-16T11:57:03.122Z,934.74
2017-10-16T11:57:14.959Z,934.68
2017-10-16T11:57:28.454Z,934.72
2017-10-16T11:57:40.901Z,934.69
2017-10-16T11:57:53.804Z,934.72
2017-10-16T11:58:06.116Z,934.74
2017-10-16T11:58:19.600Z,934.62
2017-10-16T11:58:33.049Z,934.77
2017-10-16T11:58:46.486Z,934.64
2017-10-16T11:58:59.359Z,934.7
2017-10-16T11:59:12.787Z,934.59
2017-10-16T11:59:26.232Z,934.66
2017-10-16T11:59:39.632Z,934.75
2017-10-16T11:59:53.136Z,934.72
2017-10-16T12:00:06.049Z,934.69
2017-10-16T12:00:19.528Z,934.71
2017-10-16T12:00:31.865Z,934.65
2017-10-16T12:00:45.287Z,934.69
2017-10-16T12:00:58.774Z,934.63
2017-10-16T12:01:12.217Z,934.69
2017-10-16T12:01:25.226Z,934.72
2017-10-16T12:01:38.631Z,934.8
2017-10-16T12:01:52.033Z,934.69
2017-10-16T12:02:04.908Z,934.55
2017-10-16T12:02:17.788Z,934.68
2017-10-16T12:02:31.163Z,934.68
2017-10-16T12:02:44.127Z,934.67
2017-10-16T12:02:57.555Z,934.71
2017-10-16T12:03:10.480Z,934.64
2017-10-16T12:03:22.899Z,934.69
2017-10-16T12:03:36.364Z,934.51
2017-10-16T12:03:48.717Z,934.53
2017-10-16T12:04:01.097Z,934.56
2017-10-16T12:04:14.565Z,934.45
2017-10-16T12:04:27.425Z,934.44
2017-10-16T12:04:40.900Z,934.41
2017-10-16T12:04:54.352Z,934.36
2017-10-16T12:05:06.185Z,934.61
2017-10-16T12:05:19.660Z,934.62
2017-10-16T12:05:33.157Z,934.58
2017-10-16T12:05:46.043Z,934.55
2017-10-16T12:05:59.451Z,934.55
2017-10-16T12:06:12.430Z,934.43
2017-10-16T12:06:26.220Z,934.52
2017-10-16T12:06:39.055Z,934.63
2017-10-16T12:06:52.520Z,934.63
2017-10-16T12:07:05.966Z,934.66
2017-10-16T12:07:18.904Z,934.56
2017-10-16T12:07:31.261Z,934.49
2017-10-16T12:07:44.141Z,934.7
2017-10-16T12:07:57.033Z,934.76
2017-10-16T12:08:10.014Z,934.86
2017-10-16T12:08:23.490Z,934.64